Illiopolis, Illinois
Current Conditions -  °F | °C
As of 3:54 AM on Sunday 21 Dec 2014 (Local Time) from KDEC Reporting Station
Overcast Overcast  
Wind Chill: -4°   Ceiling: 3200
Heat Index:   Visibility: 8mi
Dew Point: -2°   Wind: 10mph
Humidity: 85%   Direction: 170°S
Pressure: 30.22"   Gusts: NA
Location:  39.85°N, 89.24°W
Report Text: KDEC 210954Z AUTO 17009KT 8SM OVC032 01/M02 A3022 RMK AO2 SLP241 T00061017 TSNO
Loading
Personal Weather Stations






























Interactive Weather Map New forecast layout! Learn more

10-Day Weather Forecast

Advertisements
Track Severe Weather on mobile